sensor_id;sensor_type;location;lat;lon;timestamp;temperature;humidity
18365;DHT22;9309;52.126;11.616;2022-12-10T00:00:26;-0.30;87.80
18365;DHT22;9309;52.126;11.616;2022-12-10T00:02:53;-0.20;88.10
18365;DHT22;9309;52.126;11.616;2022-12-10T00:05:22;-0.20;86.70
18365;DHT22;9309;52.126;11.616;2022-12-10T00:07:49;-0.20;87.20
18365;DHT22;9309;52.126;11.616;2022-12-10T00:10:16;-0.10;87.60
18365;DHT22;9309;52.126;11.616;2022-12-10T00:12:43;0.00;86.30
18365;DHT22;9309;52.126;11.616;2022-12-10T00:15:10;0.10;87.00
18365;DHT22;9309;52.126;11.616;2022-12-10T00:17:37;0.20;86.70
18365;DHT22;9309;52.126;11.616;2022-12-10T00:20:05;0.30;86.20
18365;DHT22;9309;52.126;11.616;2022-12-10T00:22:33;0.10;86.20
18365;DHT22;9309;52.126;11.616;2022-12-10T00:25:00;0.00;85.90
18365;DHT22;9309;52.126;11.616;2022-12-10T00:27:27;0.10;85.50
18365;DHT22;9309;52.126;11.616;2022-12-10T00:29:54;0.00;85.80
18365;DHT22;9309;52.126;11.616;2022-12-10T00:32:21;0.10;84.40
18365;DHT22;9309;52.126;11.616;2022-12-10T00:34:48;0.00;85.30
18365;DHT22;9309;52.126;11.616;2022-12-10T00:37:15;-0.10;86.10
18365;DHT22;9309;52.126;11.616;2022-12-10T00:39:43;-0.20;85.50
18365;DHT22;9309;52.126;11.616;2022-12-10T00:42:11;-0.20;85.50
18365;DHT22;9309;52.126;11.616;2022-12-10T00:44:38;-0.40;86.50
18365;DHT22;9309;52.126;11.616;2022-12-10T00:47:05;-0.30;86.60
18365;DHT22;9309;52.126;11.616;2022-12-10T00:49:32;-0.30;87.10
18365;DHT22;9309;52.126;11.616;2022-12-10T00:51:59;-0.10;86.50
18365;DHT22;9309;52.126;11.616;2022-12-10T00:54:26;-0.10;86.30
18365;DHT22;9309;52.126;11.616;2022-12-10T00:56:54;0.10;85.90
18365;DHT22;9309;52.126;11.616;2022-12-10T00:59:21;0.00;85.60
18365;DHT22;9309;52.126;11.616;2022-12-10T01:01:48;-0.10;85.10
18365;DHT22;9309;52.126;11.616;2022-12-10T01:04:17;-0.30;86.00
18365;DHT22;9309;52.126;11.616;2022-12-10T01:06:45;-0.20;86.80
18365;DHT22;9309;52.126;11.616;2022-12-10T01:09:14;-0.10;84.70
18365;DHT22;9309;52.126;11.616;2022-12-10T01:11:43;-0.20;85.50
18365;DHT22;9309;52.126;11.616;2022-12-10T01:14:13;-0.40;87.00
18365;DHT22;9309;52.126;11.616;2022-12-10T01:16:43;-0.30;86.90
18365;DHT22;9309;52.126;11.616;2022-12-10T01:19:10;-0.20;86.50
18365;DHT22;9309;52.126;11.616;2022-12-10T01:21:37;-0.10;86.20
18365;DHT22;9309;52.126;11.616;2022-12-10T01:24:04;-0.10;85.10
18365;DHT22;9309;52.126;11.616;2022-12-10T01:26:33;0.00;85.70
18365;DHT22;9309;52.126;11.616;2022-12-10T01:29:01;-0.10;84.80
18365;DHT22;9309;52.126;11.616;2022-12-10T01:31:32;-0.10;86.00
18365;DHT22;9309;52.126;11.616;2022-12-10T01:33:59;-0.10;85.60
18365;DHT22;9309;52.126;11.616;2022-12-10T01:36:28;-0.10;86.20
18365;DHT22;9309;52.126;11.616;2022-12-10T01:38:55;-0.40;86.20
18365;DHT22;9309;52.126;11.616;2022-12-10T01:41:25;-0.40;87.30
18365;DHT22;9309;52.126;11.616;2022-12-10T01:43:55;-0.50;87.40
18365;DHT22;9309;52.126;11.616;2022-12-10T01:46:24;-0.30;87.50
18365;DHT22;9309;52.126;11.616;2022-12-10T01:48:53;-0.10;86.60
18365;DHT22;9309;52.126;11.616;2022-12-10T01:51:22;0.10;85.30
18365;DHT22;9309;52.126;11.616;2022-12-10T01:53:49;0.10;84.70
18365;DHT22;9309;52.126;11.616;2022-12-10T01:56:18;0.00;85.30
18365;DHT22;9309;52.126;11.616;2022-12-10T01:58:46;-0.10;85.40
18365;DHT22;9309;52.126;11.616;2022-12-10T02:01:18;-0.20;86.80
18365;DHT22;9309;52.126;11.616;2022-12-10T02:03:59;-0.10;86.00
18365;DHT22;9309;52.126;11.616;2022-12-10T02:06:39;0.10;85.20
18365;DHT22;9309;52.126;11.616;2022-12-10T02:09:13;0.20;83.60
18365;DHT22;9309;52.126;11.616;2022-12-10T02:11:46;0.20;83.70
18365;DHT22;9309;52.126;11.616;2022-12-10T02:14:17;-0.10;85.20
18365;DHT22;9309;52.126;11.616;2022-12-10T02:16:51;-0.20;86.20
18365;DHT22;9309;52.126;11.616;2022-12-10T02:19:25;-0.20;86.10
18365;DHT22;9309;52.126;11.616;2022-12-10T02:21:56;-0.20;85.90
18365;DHT22;9309;52.126;11.616;2022-12-10T02:24:28;-0.30;86.90
18365;DHT22;9309;52.126;11.616;2022-12-10T02:27:02;-0.10;86.70
18365;DHT22;9309;52.126;11.616;2022-12-10T02:29:32;0.00;86.30
18365;DHT22;9309;52.126;11.616;2022-12-10T02:32:03;0.20;85.40
18365;DHT22;9309;52.126;11.616;2022-12-10T02:34:35;0.20;85.70
18365;DHT22;9309;52.126;11.616;2022-12-10T02:37:09;0.30;85.40
18365;DHT22;9309;52.126;11.616;2022-12-10T02:39:40;0.40;84.90
18365;DHT22;9309;52.126;11.616;2022-12-10T02:42:10;0.30;84.30
18365;DHT22;9309;52.126;11.616;2022-12-10T02:44:42;0.20;83.90
18365;DHT22;9309;52.126;11.616;2022-12-10T02:47:10;-0.10;86.70
18365;DHT22;9309;52.126;11.616;2022-12-10T02:49:43;-0.10;86.50
18365;DHT22;9309;52.126;11.616;2022-12-10T02:52:14;-0.30;87.70
18365;DHT22;9309;52.126;11.616;2022-12-10T02:54:45;-0.30;87.90
18365;DHT22;9309;52.126;11.616;2022-12-10T02:57:32;-0.40;87.60
18365;DHT22;9309;52.126;11.616;2022-12-10T03:00:09;-0.40;88.40
18365;DHT22;9309;52.126;11.616;2022-12-10T03:03:04;-0.40;88.10
18365;DHT22;9309;52.126;11.616;2022-12-10T03:05:38;-0.40;87.20
18365;DHT22;9309;52.126;11.616;2022-12-10T03:08:12;-0.50;88.00
18365;DHT22;9309;52.126;11.616;2022-12-10T03:10:44;-0.40;88.70
18365;DHT22;9309;52.126;11.616;2022-12-10T03:13:15;-0.50;87.70
18365;DHT22;9309;52.126;11.616;2022-12-10T03:15:45;-0.50;88.80
18365;DHT22;9309;52.126;11.616;2022-12-10T03:18:15;-0.50;89.00
18365;DHT22;9309;52.126;11.616;2022-12-10T03:20:45;-0.40;89.00
18365;DHT22;9309;52.126;11.616;2022-12-10T03:23:16;-0.30;88.20
18365;DHT22;9309;52.126;11.616;2022-12-10T03:25:45;-0.30;86.60
18365;DHT22;9309;52.126;11.616;2022-12-10T03:28:13;-0.40;87.90
18365;DHT22;9309;52.126;11.616;2022-12-10T03:30:41;-0.50;88.50
18365;DHT22;9309;52.126;11.616;2022-12-10T03:33:10;-0.40;88.50
18365;DHT22;9309;52.126;11.616;2022-12-10T03:35:38;-0.40;87.60
18365;DHT22;9309;52.126;11.616;2022-12-10T03:38:06;-0.20;87.30
18365;DHT22;9309;52.126;11.616;2022-12-10T03:40:33;-0.10;86.80
18365;DHT22;9309;52.126;11.616;2022-12-10T03:43:00;-0.20;85.90
18365;DHT22;9309;52.126;11.616;2022-12-10T03:45:27;-0.20;86.60
18365;DHT22;9309;52.126;11.616;2022-12-10T03:47:53;-0.30;85.70
18365;DHT22;9309;52.126;11.616;2022-12-10T03:50:22;-0.60;87.30
18365;DHT22;9309;52.126;11.616;2022-12-10T03:52:48;-0.60;87.40
18365;DHT22;9309;52.126;11.616;2022-12-10T03:55:15;-0.60;87.00
18365;DHT22;9309;52.126;11.616;2022-12-10T03:57:42;-0.70;87.40
18365;DHT22;9309;52.126;11.616;2022-12-10T04:00:10;-0.90;88.00
18365;DHT22;9309;52.126;11.616;2022-12-10T04:02:40;-0.90;88.20
18365;DHT22;9309;52.126;11.616;2022-12-10T04:05:08;-0.80;89.00
18365;DHT22;9309;52.126;11.616;2022-12-10T04:07:36;-0.70;87.90
18365;DHT22;9309;52.126;11.616;2022-12-10T04:10:03;-0.60;87.00
18365;DHT22;9309;52.126;11.616;2022-12-10T04:12:31;-0.60;87.10
18365;DHT22;9309;52.126;11.616;2022-12-10T04:14:57;-0.60;88.10
18365;DHT22;9309;52.126;11.616;2022-12-10T04:17:42;-0.60;87.40
18365;DHT22;9309;52.126;11.616;2022-12-10T04:20:09;-0.50;87.00
18365;DHT22;9309;52.126;11.616;2022-12-10T04:22:58;-0.40;87.60
18365;DHT22;9309;52.126;11.616;2022-12-10T04:25:42;-0.50;86.90
18365;DHT22;9309;52.126;11.616;2022-12-10T04:28:27;-0.60;88.40
18365;DHT22;9309;52.126;11.616;2022-12-10T04:30:54;-0.60;89.00
18365;DHT22;9309;52.126;11.616;2022-12-10T04:33:20;-0.30;88.60
18365;DHT22;9309;52.126;11.616;2022-12-10T04:35:47;-0.30;86.90
18365;DHT22;9309;52.126;11.616;2022-12-10T04:38:15;-0.40;88.10
18365;DHT22;9309;52.126;11.616;2022-12-10T04:40:42;-0.60;87.80
18365;DHT22;9309;52.126;11.616;2022-12-10T04:43:09;-0.80;89.00
18365;DHT22;9309;52.126;11.616;2022-12-10T04:45:36;-0.80;89.60
18365;DHT22;9309;52.126;11.616;2022-12-10T04:48:05;-0.80;90.00
18365;DHT22;9309;52.126;11.616;2022-12-10T04:50:32;-0.60;90.20
18365;DHT22;9309;52.126;11.616;2022-12-10T04:52:59;-0.40;89.40
18365;DHT22;9309;52.126;11.616;2022-12-10T04:55:27;-0.40;88.10
18365;DHT22;9309;52.126;11.616;2022-12-10T04:57:54;-0.30;87.20
18365;DHT22;9309;52.126;11.616;2022-12-10T05:00:22;-0.40;87.80
18365;DHT22;9309;52.126;11.616;2022-12-10T05:02:50;-0.30;87.80
18365;DHT22;9309;52.126;11.616;2022-12-10T05:05:17;-0.30;87.80
18365;DHT22;9309;52.126;11.616;2022-12-10T05:07:44;-0.10;87.20
18365;DHT22;9309;52.126;11.616;2022-12-10T05:10:10;-0.20;87.40
18365;DHT22;9309;52.126;11.616;2022-12-10T05:12:39;-0.20;88.40
18365;DHT22;9309;52.126;11.616;2022-12-10T05:15:07;-0.30;88.10
18365;DHT22;9309;52.126;11.616;2022-12-10T05:17:34;-0.50;89.30
18365;DHT22;9309;52.126;11.616;2022-12-10T05:20:01;-0.30;89.80
18365;DHT22;9309;52.126;11.616;2022-12-10T05:22:28;-0.20;88.90
18365;DHT22;9309;52.126;11.616;2022-12-10T05:25:12;-0.20;88.00
18365;DHT22;9309;52.126;11.616;2022-12-10T05:27:40;-0.40;87.80
18365;DHT22;9309;52.126;11.616;2022-12-10T05:30:09;-0.20;88.10
18365;DHT22;9309;52.126;11.616;2022-12-10T05:32:36;-0.30;88.40
18365;DHT22;9309;52.126;11.616;2022-12-10T05:35:04;-0.20;86.60
18365;DHT22;9309;52.126;11.616;2022-12-10T05:37:32;-0.50;88.10
18365;DHT22;9309;52.126;11.616;2022-12-10T05:39:59;-0.40;88.70
18365;DHT22;9309;52.126;11.616;2022-12-10T05:42:26;-0.50;88.80
18365;DHT22;9309;52.126;11.616;2022-12-10T05:44:54;-0.30;88.50
18365;DHT22;9309;52.126;11.616;2022-12-10T05:47:21;-0.40;89.00
18365;DHT22;9309;52.126;11.616;2022-12-10T05:49:47;-0.40;88.10
18365;DHT22;9309;52.126;11.616;2022-12-10T05:52:14;-0.50;88.60
18365;DHT22;9309;52.126;11.616;2022-12-10T05:54:42;-0.50;88.80
18365;DHT22;9309;52.126;11.616;2022-12-10T05:57:08;-0.60;89.90
18365;DHT22;9309;52.126;11.616;2022-12-10T05:59:35;-0.50;89.40
18365;DHT22;9309;52.126;11.616;2022-12-10T06:02:03;-0.50;89.40
18365;DHT22;9309;52.126;11.616;2022-12-10T06:04:30;-0.50;89.00
18365;DHT22;9309;52.126;11.616;2022-12-10T06:06:57;-0.50;89.20
18365;DHT22;9309;52.126;11.616;2022-12-10T06:09:24;-0.50;90.00
18365;DHT22;9309;52.126;11.616;2022-12-10T06:11:51;-0.40;90.10
18365;DHT22;9309;52.126;11.616;2022-12-10T06:14:18;-0.20;89.80
18365;DHT22;9309;52.126;11.616;2022-12-10T06:16:45;-0.20;89.20
18365;DHT22;9309;52.126;11.616;2022-12-10T06:19:13;-0.10;89.00
18365;DHT22;9309;52.126;11.616;2022-12-10T06:21:40;0.00;87.50
18365;DHT22;9309;52.126;11.616;2022-12-10T06:24:07;-0.30;87.80
18365;DHT22;9309;52.126;11.616;2022-12-10T06:26:34;-0.50;90.20
18365;DHT22;9309;52.126;11.616;2022-12-10T06:29:01;-0.50;89.70
18365;DHT22;9309;52.126;11.616;2022-12-10T06:31:30;-0.50;90.20
18365;DHT22;9309;52.126;11.616;2022-12-10T06:33:57;-0.50;89.50
18365;DHT22;9309;52.126;11.616;2022-12-10T06:36:25;-0.60;91.10
18365;DHT22;9309;52.126;11.616;2022-12-10T06:38:52;-0.50;91.30
18365;DHT22;9309;52.126;11.616;2022-12-10T06:41:19;-0.40;90.70
18365;DHT22;9309;52.126;11.616;2022-12-10T06:43:47;-0.40;91.20
18365;DHT22;9309;52.126;11.616;2022-12-10T06:46:15;-0.20;90.80
18365;DHT22;9309;52.126;11.616;2022-12-10T06:48:42;0.00;89.60
18365;DHT22;9309;52.126;11.616;2022-12-10T06:51:10;-0.10;88.80
18365;DHT22;9309;52.126;11.616;2022-12-10T06:53:40;-0.10;89.30
18365;DHT22;9309;52.126;11.616;2022-12-10T06:56:12;0.00;88.30
18365;DHT22;9309;52.126;11.616;2022-12-10T06:58:39;0.00;87.40
18365;DHT22;9309;52.126;11.616;2022-12-10T07:01:09;-0.10;88.10
18365;DHT22;9309;52.126;11.616;2022-12-10T07:03:37;-0.40;89.00
18365;DHT22;9309;52.126;11.616;2022-12-10T07:06:05;-0.30;89.00
18365;DHT22;9309;52.126;11.616;2022-12-10T07:08:34;-0.20;88.50
18365;DHT22;9309;52.126;11.616;2022-12-10T07:11:05;-0.20;88.70
18365;DHT22;9309;52.126;11.616;2022-12-10T07:13:32;0.00;87.30
18365;DHT22;9309;52.126;11.616;2022-12-10T07:15:59;-0.20;87.30
18365;DHT22;9309;52.126;11.616;2022-12-10T07:18:26;-0.30;88.00
18365;DHT22;9309;52.126;11.616;2022-12-10T07:20:54;-0.40;88.60
18365;DHT22;9309;52.126;11.616;2022-12-10T07:23:21;-0.40;88.80
18365;DHT22;9309;52.126;11.616;2022-12-10T07:25:48;-0.40;88.70
18365;DHT22;9309;52.126;11.616;2022-12-10T07:28:16;-0.40;88.70
18365;DHT22;9309;52.126;11.616;2022-12-10T07:30:43;-0.30;89.90
18365;DHT22;9309;52.126;11.616;2022-12-10T07:33:09;-0.20;87.40
18365;DHT22;9309;52.126;11.616;2022-12-10T07:35:37;-0.20;87.90
18365;DHT22;9309;52.126;11.616;2022-12-10T07:38:04;-0.20;87.00
18365;DHT22;9309;52.126;11.616;2022-12-10T07:40:31;-0.20;87.10
18365;DHT22;9309;52.126;11.616;2022-12-10T07:42:58;-0.30;87.70
18365;DHT22;9309;52.126;11.616;2022-12-10T07:45:26;-0.40;88.50
18365;DHT22;9309;52.126;11.616;2022-12-10T07:47:53;-0.40;89.80
18365;DHT22;9309;52.126;11.616;2022-12-10T07:50:20;-0.20;89.10
18365;DHT22;9309;52.126;11.616;2022-12-10T07:52:47;-0.40;88.40
18365;DHT22;9309;52.126;11.616;2022-12-10T07:55:14;-0.40;89.20
18365;DHT22;9309;52.126;11.616;2022-12-10T07:57:40;-0.20;89.00
18365;DHT22;9309;52.126;11.616;2022-12-10T08:00:09;-0.20;88.80
18365;DHT22;9309;52.126;11.616;2022-12-10T08:02:41;-0.30;88.20
18365;DHT22;9309;52.126;11.616;2022-12-10T08:05:08;-0.10;88.30
18365;DHT22;9309;52.126;11.616;2022-12-10T08:07:36;0.10;87.80
18365;DHT22;9309;52.126;11.616;2022-12-10T08:10:03;0.10;86.80
18365;DHT22;9309;52.126;11.616;2022-12-10T08:12:30;0.20;86.40
18365;DHT22;9309;52.126;11.616;2022-12-10T08:14:57;0.30;86.30
18365;DHT22;9309;52.126;11.616;2022-12-10T08:17:24;0.10;85.80
18365;DHT22;9309;52.126;11.616;2022-12-10T08:19:53;0.20;85.40
18365;DHT22;9309;52.126;11.616;2022-12-10T08:22:20;0.20;86.20
18365;DHT22;9309;52.126;11.616;2022-12-10T08:24:47;0.20;86.20
18365;DHT22;9309;52.126;11.616;2022-12-10T08:27:14;0.20;85.80
18365;DHT22;9309;52.126;11.616;2022-12-10T08:29:40;0.30;85.40
18365;DHT22;9309;52.126;11.616;2022-12-10T08:32:07;0.10;86.30
18365;DHT22;9309;52.126;11.616;2022-12-10T08:34:34;0.20;85.30
18365;DHT22;9309;52.126;11.616;2022-12-10T08:37:03;0.10;86.40
18365;DHT22;9309;52.126;11.616;2022-12-10T08:39:30;0.20;86.10
18365;DHT22;9309;52.126;11.616;2022-12-10T08:41:59;0.20;85.70
18365;DHT22;9309;52.126;11.616;2022-12-10T08:48:13;0.10;85.80
18365;DHT22;9309;52.126;11.616;2022-12-10T08:50:40;0.20;85.10
18365;DHT22;9309;52.126;11.616;2022-12-10T08:53:08;-0.10;85.60
18365;DHT22;9309;52.126;11.616;2022-12-10T08:55:38;-0.10;86.90
18365;DHT22;9309;52.126;11.616;2022-12-10T08:58:05;0.00;87.30
18365;DHT22;9309;52.126;11.616;2022-12-10T09:00:32;0.30;85.50
18365;DHT22;9309;52.126;11.616;2022-12-10T09:02:59;0.40;85.20
18365;DHT22;9309;52.126;11.616;2022-12-10T09:05:25;0.10;84.50
18365;DHT22;9309;52.126;11.616;2022-12-10T09:07:52;-0.10;86.30
18365;DHT22;9309;52.126;11.616;2022-12-10T09:10:21;0.00;86.10
18365;DHT22;9309;52.126;11.616;2022-12-10T09:12:48;0.00;85.80
18365;DHT22;9309;52.126;11.616;2022-12-10T09:15:15;0.20;84.90
18365;DHT22;9309;52.126;11.616;2022-12-10T09:17:42;0.30;84.40
18365;DHT22;9309;52.126;11.616;2022-12-10T09:20:09;0.30;84.40
18365;DHT22;9309;52.126;11.616;2022-12-10T09:22:36;0.30;84.50
18365;DHT22;9309;52.126;11.616;2022-12-10T09:25:04;0.30;84.70
18365;DHT22;9309;52.126;11.616;2022-12-10T09:27:33;0.30;84.80
18365;DHT22;9309;52.126;11.616;2022-12-10T09:30:00;0.20;83.90
18365;DHT22;9309;52.126;11.616;2022-12-10T09:32:27;0.20;83.50
18365;DHT22;9309;52.126;11.616;2022-12-10T09:34:54;0.10;83.80
18365;DHT22;9309;52.126;11.616;2022-12-10T09:37:21;0.00;84.60
18365;DHT22;9309;52.126;11.616;2022-12-10T09:39:48;-0.20;86.00
18365;DHT22;9309;52.126;11.616;2022-12-10T09:42:25;-0.20;87.00
18365;DHT22;9309;52.126;11.616;2022-12-10T09:45:02;-0.20;86.20
18365;DHT22;9309;52.126;11.616;2022-12-10T09:47:36;-0.10;87.20
18365;DHT22;9309;52.126;11.616;2022-12-10T09:50:11;0.00;86.30
18365;DHT22;9309;52.126;11.616;2022-12-10T09:52:42;0.00;86.30
18365;DHT22;9309;52.126;11.616;2022-12-10T09:55:12;0.00;86.50
18365;DHT22;9309;52.126;11.616;2022-12-10T09:57:42;0.00;85.80
18365;DHT22;9309;52.126;11.616;2022-12-10T10:00:19;0.10;85.80
18365;DHT22;9309;52.126;11.616;2022-12-10T10:02:47;0.10;85.10
18365;DHT22;9309;52.126;11.616;2022-12-10T10:05:20;-0.10;84.60
18365;DHT22;9309;52.126;11.616;2022-12-10T10:07:51;-0.30;86.40
18365;DHT22;9309;52.126;11.616;2022-12-10T10:10:25;-0.50;87.90
18365;DHT22;9309;52.126;11.616;2022-12-10T10:12:55;-0.30;87.70
18365;DHT22;9309;52.126;11.616;2022-12-10T10:15:26;-0.20;86.50
18365;DHT22;9309;52.126;11.616;2022-12-10T10:17:57;-0.20;86.70
18365;DHT22;9309;52.126;11.616;2022-12-10T10:20:24;-0.10;86.20
18365;DHT22;9309;52.126;11.616;2022-12-10T10:22:57;-0.20;85.90
18365;DHT22;9309;52.126;11.616;2022-12-10T10:25:24;-0.20;86.10
18365;DHT22;9309;52.126;11.616;2022-12-10T10:27:52;-0.10;85.50
18365;DHT22;9309;52.126;11.616;2022-12-10T10:30:20;0.20;85.00
18365;DHT22;9309;52.126;11.616;2022-12-10T10:32:50;0.30;83.60
18365;DHT22;9309;52.126;11.616;2022-12-10T10:35:23;0.30;84.30
18365;DHT22;9309;52.126;11.616;2022-12-10T10:37:52;0.20;83.60
18365;DHT22;9309;52.126;11.616;2022-12-10T10:40:24;0.20;83.30
18365;DHT22;9309;52.126;11.616;2022-12-10T10:42:54;0.10;83.20
18365;DHT22;9309;52.126;11.616;2022-12-10T10:45:39;0.00;83.50
18365;DHT22;9309;52.126;11.616;2022-12-10T10:48:18;-0.10;83.40
18365;DHT22;9309;52.126;11.616;2022-12-10T10:50:48;0.10;84.00
18365;DHT22;9309;52.126;11.616;2022-12-10T10:53:28;0.10;83.10
18365;DHT22;9309;52.126;11.616;2022-12-10T10:55:58;0.20;83.20
18365;DHT22;9309;52.126;11.616;2022-12-10T10:58:26;0.60;82.00
18365;DHT22;9309;52.126;11.616;2022-12-10T11:00:59;0.50;80.50
18365;DHT22;9309;52.126;11.616;2022-12-10T11:03:29;0.40;80.60
18365;DHT22;9309;52.126;11.616;2022-12-10T11:05:58;0.30;81.50
18365;DHT22;9309;52.126;11.616;2022-12-10T11:08:28;0.20;81.40
18365;DHT22;9309;52.126;11.616;2022-12-10T11:11:00;0.10;81.50
18365;DHT22;9309;52.126;11.616;2022-12-10T11:13:30;0.10;82.00
18365;DHT22;9309;52.126;11.616;2022-12-10T11:16:00;0.20;80.70
18365;DHT22;9309;52.126;11.616;2022-12-10T11:18:32;0.20;81.20
18365;DHT22;9309;52.126;11.616;2022-12-10T11:21:03;0.40;80.80
18365;DHT22;9309;52.126;11.616;2022-12-10T11:23:35;0.30;80.50
18365;DHT22;9309;52.126;11.616;2022-12-10T11:26:17;0.30;81.60
18365;DHT22;9309;52.126;11.616;2022-12-10T11:28:57;0.20;80.30
18365;DHT22;9309;52.126;11.616;2022-12-10T11:31:40;0.20;81.10
18365;DHT22;9309;52.126;11.616;2022-12-10T11:34:16;0.10;81.40
18365;DHT22;9309;52.126;11.616;2022-12-10T11:36:54;0.30;80.30
18365;DHT22;9309;52.126;11.616;2022-12-10T11:39:40;0.40;80.90
18365;DHT22;9309;52.126;11.616;2022-12-10T11:42:19;0.40;80.60
18365;DHT22;9309;52.126;11.616;2022-12-10T11:44:54;0.40;80.00
18365;DHT22;9309;52.126;11.616;2022-12-10T11:47:37;0.30;79.80
18365;DHT22;9309;52.126;11.616;2022-12-10T11:50:20;0.20;80.60
18365;DHT22;9309;52.126;11.616;2022-12-10T11:53:12;0.20;81.10
18365;DHT22;9309;52.126;11.616;2022-12-10T11:55:47;0.30;80.70
18365;DHT22;9309;52.126;11.616;2022-12-10T11:58:32;0.40;79.00
18365;DHT22;9309;52.126;11.616;2022-12-10T12:01:05;0.30;80.50
18365;DHT22;9309;52.126;11.616;2022-12-10T12:04:00;0.10;81.60
18365;DHT22;9309;52.126;11.616;2022-12-10T12:06:51;0.30;81.90
18365;DHT22;9309;52.126;11.616;2022-12-10T12:09:24;0.40;81.10
18365;DHT22;9309;52.126;11.616;2022-12-10T12:12:02;0.60;79.30
18365;DHT22;9309;52.126;11.616;2022-12-10T12:14:36;0.90;77.10
18365;DHT22;9309;52.126;11.616;2022-12-10T12:17:09;0.60;78.80
18365;DHT22;9309;52.126;11.616;2022-12-10T12:19:39;0.60;77.70
18365;DHT22;9309;52.126;11.616;2022-12-10T12:22:15;0.60;78.00
18365;DHT22;9309;52.126;11.616;2022-12-10T12:24:44;0.60;78.40
18365;DHT22;9309;52.126;11.616;2022-12-10T12:27:22;0.60;78.30
18365;DHT22;9309;52.126;11.616;2022-12-10T12:32:27;0.60;79.40
18365;DHT22;9309;52.126;11.616;2022-12-10T12:34:59;0.60;78.60
18365;DHT22;9309;52.126;11.616;2022-12-10T12:37:34;0.90;77.50
18365;DHT22;9309;52.126;11.616;2022-12-10T12:40:09;0.80;76.90
18365;DHT22;9309;52.126;11.616;2022-12-10T12:42:42;0.60;77.30
18365;DHT22;9309;52.126;11.616;2022-12-10T12:45:16;0.90;77.20
18365;DHT22;9309;52.126;11.616;2022-12-10T12:47:48;1.20;76.20
18365;DHT22;9309;52.126;11.616;2022-12-10T12:50:24;1.10;75.80
18365;DHT22;9309;52.126;11.616;2022-12-10T12:52:55;1.20;75.20
18365;DHT22;9309;52.126;11.616;2022-12-10T12:55:29;1.00;75.90
18365;DHT22;9309;52.126;11.616;2022-12-10T12:58:09;0.70;76.30
18365;DHT22;9309;52.126;11.616;2022-12-10T13:00:40;0.70;76.00
18365;DHT22;9309;52.126;11.616;2022-12-10T13:03:19;0.50;76.90
18365;DHT22;9309;52.126;11.616;2022-12-10T13:05:50;0.40;77.40
18365;DHT22;9309;52.126;11.616;2022-12-10T13:08:31;0.40;77.90
18365;DHT22;9309;52.126;11.616;2022-12-10T13:11:00;0.50;77.70
18365;DHT22;9309;52.126;11.616;2022-12-10T13:14:11;0.30;78.10
18365;DHT22;9309;52.126;11.616;2022-12-10T13:16:58;0.30;78.30
18365;DHT22;9309;52.126;11.616;2022-12-10T13:19:28;0.20;78.80
18365;DHT22;9309;52.126;11.616;2022-12-10T13:22:08;0.20;79.70
18365;DHT22;9309;52.126;11.616;2022-12-10T13:24:46;0.30;79.10
18365;DHT22;9309;52.126;11.616;2022-12-10T13:27:18;0.40;78.70
18365;DHT22;9309;52.126;11.616;2022-12-10T13:29:47;0.10;80.00
18365;DHT22;9309;52.126;11.616;2022-12-10T13:32:20;0.00;81.00
18365;DHT22;9309;52.126;11.616;2022-12-10T13:35:25;0.30;80.50
18365;DHT22;9309;52.126;11.616;2022-12-10T13:37:55;0.60;78.50
18365;DHT22;9309;52.126;11.616;2022-12-10T13:40:26;0.50;77.40
18365;DHT22;9309;52.126;11.616;2022-12-10T13:42:57;0.20;78.50
18365;DHT22;9309;52.126;11.616;2022-12-10T13:45:43;0.20;79.00
18365;DHT22;9309;52.126;11.616;2022-12-10T13:48:23;0.20;79.00
18365;DHT22;9309;52.126;11.616;2022-12-10T13:51:00;0.10;79.10
18365;DHT22;9309;52.126;11.616;2022-12-10T13:53:35;0.00;77.80
18365;DHT22;9309;52.126;11.616;2022-12-10T13:56:10;-0.10;80.50
18365;DHT22;9309;52.126;11.616;2022-12-10T13:58:46;-0.10;80.70
18365;DHT22;9309;52.126;11.616;2022-12-10T14:01:20;-0.20;81.00
18365;DHT22;9309;52.126;11.616;2022-12-10T14:06:42;0.00;79.20
18365;DHT22;9309;52.126;11.616;2022-12-10T14:09:13;0.00;78.00
18365;DHT22;9309;52.126;11.616;2022-12-10T14:11:47;-0.20;80.10
18365;DHT22;9309;52.126;11.616;2022-12-10T14:14:23;-0.20;79.30
18365;DHT22;9309;52.126;11.616;2022-12-10T14:16:51;-0.30;80.20
18365;DHT22;9309;52.126;11.616;2022-12-10T14:19:26;-0.20;80.10
18365;DHT22;9309;52.126;11.616;2022-12-10T14:21:54;-0.20;79.80
18365;DHT22;9309;52.126;11.616;2022-12-10T14:24:30;-0.40;79.80
18365;DHT22;9309;52.126;11.616;2022-12-10T14:27:01;-0.30;80.00
18365;DHT22;9309;52.126;11.616;2022-12-10T14:29:28;-0.40;80.30
18365;DHT22;9309;52.126;11.616;2022-12-10T14:31:56;-0.40;80.50
18365;DHT22;9309;52.126;11.616;2022-12-10T14:34:26;-0.40;81.40
18365;DHT22;9309;52.126;11.616;2022-12-10T14:36:55;-0.30;80.80
18365;DHT22;9309;52.126;11.616;2022-12-10T14:39:26;-0.20;80.60
18365;DHT22;9309;52.126;11.616;2022-12-10T14:41:56;-0.20;80.60
18365;DHT22;9309;52.126;11.616;2022-12-10T14:44:25;-0.20;80.80
18365;DHT22;9309;52.126;11.616;2022-12-10T14:47:02;-0.10;79.50
18365;DHT22;9309;52.126;11.616;2022-12-10T14:49:30;-0.10;80.40
18365;DHT22;9309;52.126;11.616;2022-12-10T14:51:57;-0.20;81.00
18365;DHT22;9309;52.126;11.616;2022-12-10T14:54:26;-0.10;80.20
18365;DHT22;9309;52.126;11.616;2022-12-10T14:56:55;0.00;79.00
18365;DHT22;9309;52.126;11.616;2022-12-10T14:59:26;-0.10;78.50
18365;DHT22;9309;52.126;11.616;2022-12-10T15:01:57;-0.20;80.00
18365;DHT22;9309;52.126;11.616;2022-12-10T15:04:30;-0.30;79.40
18365;DHT22;9309;52.126;11.616;2022-12-10T15:06:58;-0.40;80.50
18365;DHT22;9309;52.126;11.616;2022-12-10T15:09:27;-0.40;81.10
18365;DHT22;9309;52.126;11.616;2022-12-10T15:11:55;-0.30;80.00
18365;DHT22;9309;52.126;11.616;2022-12-10T15:14:23;-0.20;79.70
18365;DHT22;9309;52.126;11.616;2022-12-10T15:16:52;-0.20;79.60
18365;DHT22;9309;52.126;11.616;2022-12-10T15:19:23;-0.10;78.90
18365;DHT22;9309;52.126;11.616;2022-12-10T15:21:52;-0.20;78.80
18365;DHT22;9309;52.126;11.616;2022-12-10T15:24:27;-0.20;79.80
18365;DHT22;9309;52.126;11.616;2022-12-10T15:26:54;-0.30;79.00
18365;DHT22;9309;52.126;11.616;2022-12-10T15:29:31;-0.20;79.50
18365;DHT22;9309;52.126;11.616;2022-12-10T15:32:08;-0.20;79.90
18365;DHT22;9309;52.126;11.616;2022-12-10T15:34:42;-0.30;79.40
18365;DHT22;9309;52.126;11.616;2022-12-10T15:37:20;-0.30;79.60
18365;DHT22;9309;52.126;11.616;2022-12-10T15:39:50;-0.40;78.90
18365;DHT22;9309;52.126;11.616;2022-12-10T15:42:39;-0.40;80.30
18365;DHT22;9309;52.126;11.616;2022-12-10T15:45:19;-0.40;79.50
18365;DHT22;9309;52.126;11.616;2022-12-10T15:47:48;-0.40;78.80
18365;DHT22;9309;52.126;11.616;2022-12-10T15:50:15;-0.50;79.00
18365;DHT22;9309;52.126;11.616;2022-12-10T15:52:42;-0.50;79.70
18365;DHT22;9309;52.126;11.616;2022-12-10T15:55:10;-0.40;79.90
18365;DHT22;9309;52.126;11.616;2022-12-10T15:57:40;-0.40;79.00
18365;DHT22;9309;52.126;11.616;2022-12-10T16:00:16;-0.40;79.00
18365;DHT22;9309;52.126;11.616;2022-12-10T16:02:47;-0.60;79.10
18365;DHT22;9309;52.126;11.616;2022-12-10T16:05:18;-0.70;79.50
18365;DHT22;9309;52.126;11.616;2022-12-10T16:07:48;-0.60;79.70